Estación Meteorológica Peña el Pijo (Robertgarden) [ 11/20/18 01:22:48 CET ]

Fecha Hora Presion(HPa) Temp (°C) Humedad % Rocio (°C) Viento ( m/s) Direccion Lluvia 1Hora(mm) Lluvia 24H(mm) LLuvia Total(mm)
2018-Nov-01 01:01:48 998.000 3.6 84 1.1       0.51 94.79
2018-Nov-01 02:03:47 998.200 3.9 84 1.4       0.51 94.79
2018-Nov-01 03:02:42 998.100 4.2 84 1.7       0.51 94.79
2018-Nov-01 04:11:07 998.800 3.1 84 0.6       0.51 94.79
2018-Nov-01 05:02:46 998.900 1.3 85 -1.0       0.51 94.79
2018-Nov-01 06:02:47 999.900 0.6 86 -1.5         94.79
2018-Nov-01 07:01:51 1001.000 1.0 86 -1.1         94.79
2018-Nov-01 08:01:46 1002.100 1.2 87 -0.8         94.79
2018-Nov-01 09:01:51 1003.400 3.9 88 2.1         94.79
2018-Nov-01 10:01:34 1003.800 6.9 85 4.5         94.79
2018-Nov-01 11:01:43 1004.300 9.5 73 4.9         94.79
2018-Nov-01 12:01:47 1005.000 11.9 58 3.9         94.79
2018-Nov-01 13:01:31 1005.300 11.2 58 3.2         94.79
2018-Nov-01 14:01:37 1005.000 12.9 54 3.8         94.79
2018-Nov-01 15:01:42 1005.400 13.2 54 4.0         94.79
2018-Nov-01 16:01:22 1006.200 11.7 56 3.2         94.79
2018-Nov-01 17:01:23 1006.700 11.2 57 2.9         94.79
2018-Nov-01 18:01:43 1007.000 8.4 65 2.2         94.79
2018-Nov-01 19:01:31 1007.900 6.1 70 1.1         94.79
2018-Nov-01 20:01:50 1008.800 5.1 76 1.2         94.79
2018-Nov-01 21:02:01 1009.500 5.5 77 1.8         94.79
2018-Nov-01 22:01:54 1010.000 3.8 79 0.5         94.79
2018-Nov-01 23:01:38 1009.900 2.7 81 -0.2         94.79

Temperatura Máxima:13°    Temperatura Mínima:
Presión Máxima:1010.000 Hpa    Presión Mínima:998.000 Hpa


Volver